Relevés horaires Titlis (Suisse)


Relevés horaires à Titlis - Vendredi 26 Mars 2021
Heure UTC1 Température [°C] Vent [km/h] Hum. [%] Pres.4 [hPa] Visi. [Km] Nébu. [octa] Préc.5 [mm] Cond.
2m. Res. Ros. Dir.2 Vit. Moy. Raf.3
23:00 -7.2 -12.8 -11.0 SSO 13.0 -- 25.9 74 700(-0.5/3h) -- -- -- --
22:00 -6.4 -13.7 -12.8 SO 22.2 -- 35.2 60 700(-0.1/3h) -- -- -- --
21:00 -6.2 -14.3 -13.3 SO 27.8 -- 38.9 57 700(0.2/3h) -- -- -- --
20:00 -6.6 -12.9 -11.9 SO 16.7 -- 27.8 66 700(0.5/3h) -- -- -- --
19:00 -6.5 -12.4 -11.9 SO 14.8 -- 25.9 65 700(0.6/3h) -- -- -- --
18:00 -6.4 -13 -11.9 SO 18.5 -- 38.9 65 700(0.3/3h) -- -- -- --
17:00 -6.0 -12.5 -12.1 SO 18.5 -- 38.9 62 700(-0.1/3h) -- -- -- --
16:00 -4.9 -12.3 -16.2 SO 25.9 -- 38.9 41 700(-0.5/3h) -- -- -- --
15:00 -5.4 -11.4 -12.2 SSO 16.7 -- 37.0 59 700(-0.6/3h) -- -- -- --
14:00 -4.5 -9.9 -18.4 SSO 14.8 -- 27.8 33 700(-0.5/3h) -- -- -- --
13:00 -4.7 -11.2 -20.8 SO 20.4 -- 31.5 27 700(-0.4/3h) -- -- -- --
12:00 -4.0 -10.6 -24.2 SO 22.2 -- 37.0 19 700(0.0/3h) -- -- -- --
11:00 -4.3 -10.1 -24.9 SO 16.7 -- 37.0 18 700(0.4/3h) -- -- -- --
10:00 -3.7 -10.8 -25.0 SO 25.9 -- 37.0 17 700(0.7/3h) -- -- -- --
09:00 -4.7 -9.7 -28.9 SSE 13.0 -- 29.6 13 700(0.6/3h) -- -- -- --
08:00 -5.2 -9.9 -26.5 SO 11.1 -- 25.9 17 700(0.4/3h) -- -- -- --
07:00 -5.5 -12.6 -26.7 OSO 22.2 -- 29.6 17 700(0.2/3h) -- -- -- --
06:00 -6.1 -13.9 -26.1 OSO 25.9 -- 35.2 19 700(0.0/3h) -- -- -- --
05:00 -6.6 -14 -24.4 OSO 22.2 -- 31.5 23 700(-0.2/3h) -- -- -- --
04:00 -7.3 -14.8 -24.6 OSO 22.2 -- 27.8 23 700(-0.4/3h) -- -- -- --
03:00 -7.5 -15.1 -22.3 SO 22.2 -- 31.5 29 700(-0.7/3h) -- -- -- --
02:00 -8.2 -14 -16.2 SO 13.0 -- 20.4 52 700(-0.7/3h) -- -- -- --
01:00 -8.1 -13.9 -16.4 OSO 13.0 -- 22.2 51 700(-0.5/3h) -- -- -- --
00:00 -7.8 -13.5 -15.6 SO 13.0 -- 38.9 53 700(-0.3/3h) -- -- -- --

1 Coordinated Universal Time. Actuellement il est 18:00 locale et 16:00 UTC.

2 Le vent souffle depuis la direction indiquée vers la direction oposée.

3 Les rafales max. sont disponible 40 min après l'heure du relevé.

4 Pour les stations d'altitude (plus de 600m) le géopotentiel du niveau le plus proche de la pression obligatoire est indiqué.

5 Les stations disposant d'un diffuseur peuvent indiquer "trace". Cela signifie que des précipitations ont touchés le sol mais que la quantité est inférieure à 0.1 mm.

Copyright

Les données affichées sur cette page sont la propriété exclusive de Météo Suisse.

Récapitulatif de la journée
Température [°C] Vent [km/h] Ensoleillement4 [h] Precipitations totale5 [mm] Pression [Hpa]
Min1 Max.2 Moy.3 Max. Min Max.
-8.8 -3.6 0 38.9 9 h 18 min 0 700.0 700.0

1 Température minimale relevée entre 18:00 UTC la veille et 18:00 UTC le jour donné.

2 Température maximale relevée entre 06:00 UTC le jour donné et 06:00 UTC le lendemain.

3 Vent moyen de la journée basé sur les relevés horaires.

4 Ensoleillement en heures relevé entre 06:00 UTC la veille et 06:00 UTC le jour donné.

5 Précipitations totales tombées entre 06:00 UTC la jour donné et 06:00 UTC le lendemain.

Graphiques horaires